Time;durP1;ratioP1;P1;durP2;ratioP2;P2;SDS_P1;SDS_P2;PMS_P1;PMS_P2;Temp;Humidity;BMP_temperature;BMP_pressure;BME280_temperature;BME280_humidity;BME280_pressure;Samples;Min_cycle;Max_cycle;Signal;HPM_P1;HPM_P2
2021/08/04 00:01:44;;;;;;;1.73;1.63;;;11.80;99.90;;;;;;4980254;28;20146;-66
2021/08/04 00:04:11;;;;;;;1.30;1.15;;;11.90;99.90;;;;;;4977812;28;20460;-65
2021/08/04 00:06:39;;;;;;;2.03;1.85;;;11.80;99.90;;;;;;4982981;28;20654;-65
2021/08/04 00:09:06;;;;;;;3.22;1.40;;;11.80;99.90;;;;;;4979888;28;20492;-68
2021/08/04 00:11:33;;;;;;;4.07;1.83;;;11.80;99.90;;;;;;4981794;28;20137;-64
2021/08/04 00:14:01;;;;;;;2.08;1.60;;;11.80;99.90;;;;;;4979691;28;20112;-64
2021/08/04 00:16:28;;;;;;;6.50;1.27;;;11.70;99.90;;;;;;4979964;28;20046;-65
2021/08/04 00:18:55;;;;;;;0.93;0.85;;;11.70;99.90;;;;;;4980286;28;20039;-64
2021/08/04 00:21:22;;;;;;;1.52;1.40;;;11.70;99.90;;;;;;4980783;28;20043;-64
2021/08/04 00:23:49;;;;;;;2.53;1.65;;;11.70;99.90;;;;;;4984210;28;20039;-66
2021/08/04 00:26:16;;;;;;;1.77;1.45;;;11.70;99.90;;;;;;4975924;28;20074;-66
2021/08/04 00:28:43;;;;;;;2.63;1.60;;;11.70;99.90;;;;;;4983903;28;20053;-65
2021/08/04 00:31:11;;;;;;;1.20;1.10;;;11.70;99.90;;;;;;4981261;28;20120;-64
2021/08/04 00:33:38;;;;;;;1.30;1.20;;;11.60;99.90;;;;;;4967942;28;20046;-67
2021/08/04 00:36:05;;;;;;;2.13;1.33;;;11.60;99.90;;;;;;4966808;28;20062;-68
2021/08/04 00:38:32;;;;;;;1.48;1.27;;;11.60;99.90;;;;;;4964339;28;20038;-66
2021/08/04 00:40:59;;;;;;;1.67;1.33;;;11.50;99.90;;;;;;4967876;28;20081;-64
2021/08/04 00:43:27;;;;;;;5.45;1.30;;;11.60;99.90;;;;;;4983747;28;20413;-66
2021/08/04 00:45:54;;;;;;;1.10;0.90;;;11.50;99.90;;;;;;4976366;28;20055;-65
2021/08/04 00:48:22;;;;;;;4.40;1.30;;;11.50;99.90;;;;;;4992610;28;20105;-65
2021/08/04 00:50:49;;;;;;;1.20;1.10;;;11.50;99.90;;;;;;4986282;28;20337;-66
2021/08/04 00:53:22;;;;;;;1.50;1.40;;;11.50;99.90;;;;;;4984419;28;20051;-65
2021/08/04 00:55:53;;;;;;;1.83;1.10;;;11.40;99.90;;;;;;4983209;28;20363;-65
2021/08/04 00:58:23;;;;;;;1.10;1.10;;;11.40;99.90;;;;;;4987057;28;20038;-65
2021/08/04 01:00:55;;;;;;;1.30;1.20;;;11.40;99.90;;;;;;4999569;28;20746;-64
2021/08/04 01:03:29;;;;;;;1.45;1.05;;;11.40;99.90;;;;;;4999555;28;20411;-64
2021/08/04 01:06:00;;;;;;;1.33;1.15;;;11.40;99.90;;;;;;4986571;28;20200;-64
2021/08/04 01:08:31;;;;;;;3.47;1.70;;;11.40;99.90;;;;;;4983210;28;20452;-67
2021/08/04 01:11:02;;;;;;;5.28;1.48;;;11.40;99.90;;;;;;4984443;28;20161;-66
2021/08/04 01:13:35;;;;;;;2.08;1.45;;;11.30;99.90;;;;;;4978726;28;20130;-65
2021/08/04 01:16:17;;;;;;;2.72;1.33;;;11.30;99.90;;;;;;4980783;28;20046;-63
2021/08/04 01:18:54;;;;;;;1.73;1.10;;;11.30;99.90;;;;;;4994509;28;20085;-66
2021/08/04 01:21:31;;;;;;;1.25;1.20;;;11.30;99.90;;;;;;4983335;28;20104;-64
2021/08/04 01:24:19;;;;;;;3.90;1.77;;;11.30;99.90;;;;;;4984750;28;20046;-66
2021/08/04 01:26:47;;;;;;;1.35;1.25;;;11.20;99.90;;;;;;4946452;28;20078;-64
2021/08/04 01:29:18;;;;;;;3.53;1.65;;;11.20;99.90;;;;;;4973806;28;20105;-64
2021/08/04 01:31:48;;;;;;;1.98;1.73;;;11.30;99.90;;;;;;4974472;28;20735;-63
2021/08/04 01:34:18;;;;;;;;;;;11.20;99.90;;;;;;4993749;28;20038;-64
2021/08/04 01:36:46;;;;;;;4.68;1.80;;;11.20;99.90;;;;;;4975438;28;19969;-64
2021/08/04 01:39:15;;;;;;;2.03;1.80;;;11.20;99.90;;;;;;4985783;28;20058;-63
2021/08/04 01:41:43;;;;;;;2.33;1.90;;;11.20;99.90;;;;;;4982615;28;20122;-66
2021/08/04 01:44:11;;;;;;;2.35;1.55;;;11.20;99.90;;;;;;4978995;28;20041;-65
2021/08/04 01:46:38;;;;;;;2.70;1.90;;;11.10;99.90;;;;;;4980404;28;20376;-64
2021/08/04 01:49:06;;;;;;;2.05;1.42;;;11.20;99.90;;;;;;4985455;28;20150;-63
2021/08/04 01:51:33;;;;;;;2.28;2.08;;;11.20;99.90;;;;;;4983791;28;20039;-64
2021/08/04 01:54:02;;;;;;;2.78;2.58;;;11.10;99.90;;;;;;4999634;28;20050;-63
2021/08/04 01:56:29;;;;;;;1.92;1.83;;;11.10;99.90;;;;;;4982971;28;20069;-64
2021/08/04 01:58:57;;;;;;;8.20;2.25;;;11.10;99.90;;;;;;4996200;28;20054;-68
2021/08/04 02:01:26;;;;;;;4.40;2.42;;;11.10;99.90;;;;;;4973887;28;20750;-65
2021/08/04 02:03:53;;;;;;;2.13;1.58;;;11.10;99.90;;;;;;4974047;28;21368;-64
2021/08/04 02:06:48;;;;;;;2.38;2.17;;;11.10;99.90;;;;;;4975883;28;20374;-67
2021/08/04 02:09:23;;;;;;;4.82;1.45;;;11.10;99.90;;;;;;4982244;28;20464;-67
2021/08/04 02:12:01;;;;;;;2.50;2.13;;;11.00;99.90;;;;;;4984739;28;20684;-64
2021/08/04 02:14:40;;;;;;;2.92;2.17;;;11.00;99.90;;;;;;4981478;28;20069;-65
2021/08/04 02:17:31;;;;;;;2.30;2.10;;;11.00;99.90;;;;;;4994604;28;20685;-64
2021/08/04 02:20:19;;;;;;;4.35;2.00;;;11.00;99.90;;;;;;4982510;28;20623;-65
2021/08/04 02:23:10;;;;;;;2.38;2.15;;;11.00;99.90;;;;;;4980489;28;20043;-65
2021/08/04 02:25:44;;;;;;;3.47;2.13;;;11.00;99.90;;;;;;5000683;28;20050;-65
2021/08/04 02:28:16;;;;;;;2.17;1.95;;;11.00;99.90;;;;;;4980811;28;20081;-65
2021/08/04 02:30:43;;;;;;;1.85;1.60;;;11.00;99.90;;;;;;4986298;28;20099;-65
2021/08/04 02:33:10;;;;;;;3.97;2.75;;;10.90;99.90;;;;;;4981185;28;20452;-63
2021/08/04 02:35:37;;;;;;;1.83;1.70;;;10.90;99.90;;;;;;4984844;28;20133;-65
2021/08/04 02:38:04;;;;;;;5.00;2.63;;;10.90;99.90;;;;;;4982714;28;20057;-65
2021/08/04 02:40:31;;;;;;;2.67;1.92;;;10.90;99.90;;;;;;4984269;28;20475;-64
2021/08/04 02:42:59;;;;;;;4.72;1.60;;;10.90;99.90;;;;;;4980174;28;20087;-64
2021/08/04 02:45:27;;;;;;;1.90;1.75;;;10.90;99.90;;;;;;4973565;28;20111;-64
2021/08/04 02:47:55;;;;;;;1.85;1.75;;;10.90;99.90;;;;;;4979883;28;20376;-66
2021/08/04 02:50:23;;;;;;;3.83;2.22;;;10.90;99.90;;;;;;4980999;28;20089;-64
2021/08/04 02:52:50;;;;;;;3.08;1.67;;;10.90;99.90;;;;;;4985222;28;20133;-66
2021/08/04 02:55:17;;;;;;;3.15;2.05;;;10.90;99.90;;;;;;4982642;28;20074;-64
2021/08/04 02:57:44;;;;;;;3.60;1.83;;;10.90;99.90;;;;;;5001415;28;20046;-65
2021/08/04 03:00:12;;;;;;;2.35;1.67;;;10.90;99.90;;;;;;4981959;28;20081;-64
2021/08/04 03:02:39;;;;;;;3.40;2.80;;;10.90;99.90;;;;;;4981015;28;20077;-65
2021/08/04 03:05:08;;;;;;;2.47;2.28;;;10.90;99.90;;;;;;4984377;28;20480;-68
2021/08/04 03:07:35;;;;;;;3.10;2.03;;;10.90;99.90;;;;;;4982766;28;20046;-64
2021/08/04 03:10:02;;;;;;;2.97;2.58;;;11.00;99.90;;;;;;4980424;28;20042;-64
2021/08/04 03:12:29;;;;;;;2.67;1.83;;;11.00;99.90;;;;;;4980822;28;20046;-66
2021/08/04 03:14:56;;;;;;;4.22;2.33;;;11.00;99.90;;;;;;4979171;28;20047;-65
2021/08/04 03:17:23;;;;;;;4.95;2.25;;;11.00;99.90;;;;;;4972988;28;20040;-66
2021/08/04 03:19:50;;;;;;;3.80;2.90;;;11.00;99.90;;;;;;4984347;28;20696;-63
2021/08/04 03:22:17;;;;;;;3.25;2.05;;;11.00;99.90;;;;;;4981678;28;20436;-64
2021/08/04 03:24:44;;;;;;;2.40;1.67;;;11.10;99.90;;;;;;4963343;28;20514;-68
2021/08/04 03:27:11;;;;;;;2.25;2.05;;;11.10;99.90;;;;;;4972772;28;20185;-66
2021/08/04 03:29:38;;;;;;;1.80;1.58;;;11.10;99.90;;;;;;4980823;28;20620;-67
2021/08/04 03:32:05;;;;;;;2.25;2.03;;;11.10;99.90;;;;;;4986135;28;20384;-66
2021/08/04 03:34:33;;;;;;;2.45;1.95;;;11.10;99.90;;;;;;4981696;28;20439;-65
2021/08/04 03:37:00;;;;;;;2.80;2.35;;;11.20;99.90;;;;;;4983975;28;20093;-64
2021/08/04 03:39:26;;;;;;;5.68;1.95;;;11.20;99.90;;;;;;4982224;28;20046;-63
2021/08/04 03:41:53;;;;;;;4.40;2.28;;;11.20;99.90;;;;;;4983881;28;20710;-63
2021/08/04 03:44:20;;;;;;;3.13;1.90;;;11.20;99.90;;;;;;4975952;28;20050;-64
2021/08/04 03:46:48;;;;;;;3.63;2.33;;;11.20;99.90;;;;;;4984695;28;20065;-64
2021/08/04 03:49:16;;;;;;;3.80;2.22;;;11.30;99.90;;;;;;4980497;28;20045;-64
2021/08/04 03:51:43;;;;;;;3.33;2.10;;;11.30;99.90;;;;;;4978216;28;20369;-64
2021/08/04 03:54:10;;;;;;;4.10;2.38;;;11.30;99.90;;;;;;4980868;28;20114;-66
2021/08/04 03:56:37;;;;;;;2.33;2.03;;;11.30;99.90;;;;;;4982641;28;20046;-64
2021/08/04 03:59:04;;;;;;;3.42;2.35;;;11.30;99.90;;;;;;4981462;28;20038;-64
2021/08/04 04:01:31;;;;;;;3.60;2.65;;;11.30;99.90;;;;;;4982492;28;20109;-64
2021/08/04 04:03:58;;;;;;;2.50;1.92;;;11.40;99.90;;;;;;4983434;28;20762;-65
2021/08/04 04:06:25;;;;;;;3.03;2.08;;;11.40;99.90;;;;;;4981949;28;20117;-67
2021/08/04 04:08:52;;;;;;;2.88;2.67;;;11.40;99.90;;;;;;4980495;28;20100;-64
2021/08/04 04:11:19;;;;;;;3.08;2.25;;;11.50;99.90;;;;;;4982933;28;20161;-64
2021/08/04 04:13:46;;;;;;;4.13;2.55;;;11.50;99.90;;;;;;4980443;28;20070;-65
2021/08/04 04:16:13;;;;;;;6.03;2.15;;;11.50;99.90;;;;;;4979129;28;20043;-63
2021/08/04 04:18:40;;;;;;;3.47;2.20;;;11.60;99.90;;;;;;4966929;28;20053;-63
2021/08/04 04:21:07;;;;;;;3.13;2.75;;;11.60;99.90;;;;;;4982255;28;20077;-67
2021/08/04 04:23:34;;;;;;;3.65;2.45;;;11.70;99.90;;;;;;4982134;28;20116;-64
2021/08/04 04:26:02;;;;;;;2.65;2.42;;;11.70;99.90;;;;;;4978037;28;20126;-63
2021/08/04 04:28:30;;;;;;;3.72;2.42;;;11.70;99.90;;;;;;4978640;28;20105;-65
2021/08/04 04:30:57;;;;;;;5.70;2.28;;;11.80;99.90;;;;;;4967614;28;20077;-66
2021/08/04 04:33:24;;;;;;;2.47;2.15;;;11.90;99.90;;;;;;4983310;28;20738;-64
2021/08/04 04:35:51;;;;;;;5.47;2.05;;;11.90;99.90;;;;;;4979951;28;20137;-67
2021/08/04 04:38:18;;;;;;;3.33;2.10;;;12.00;99.90;;;;;;4980383;28;20127;-68
2021/08/04 04:40:45;;;;;;;5.38;2.55;;;12.00;99.90;;;;;;4981793;28;20046;-66
2021/08/04 04:43:12;;;;;;;2.50;2.17;;;12.10;99.90;;;;;;4983474;28;20050;-64
2021/08/04 04:45:39;;;;;;;4.43;2.42;;;12.10;99.90;;;;;;4979938;28;20094;-65
2021/08/04 04:48:06;;;;;;;2.95;2.00;;;12.20;99.90;;;;;;4982385;28;20050;-64
2021/08/04 04:50:34;;;;;;;6.10;2.85;;;12.30;99.90;;;;;;4980273;28;20059;-64
2021/08/04 04:53:01;;;;;;;4.07;1.85;;;12.40;99.90;;;;;;4981957;28;20071;-66
2021/08/04 04:55:29;;;;;;;3.63;2.35;;;12.40;99.90;;;;;;4971658;28;20055;-67
2021/08/04 04:57:55;;;;;;;4.85;2.90;;;12.50;99.90;;;;;;4975150;28;20148;-66
2021/08/04 05:00:22;;;;;;;2.72;1.80;;;12.60;99.90;;;;;;4982090;28;20485;-63
2021/08/04 05:02:49;;;;;;;3.55;2.20;;;12.70;99.90;;;;;;4981193;28;20039;-67
2021/08/04 05:05:17;;;;;;;4.85;3.08;;;12.70;99.90;;;;;;4984247;28;20049;-67
2021/08/04 05:07:44;;;;;;;3.33;2.28;;;12.80;99.90;;;;;;4981133;28;20078;-66
2021/08/04 05:10:11;;;;;;;3.15;2.20;;;12.90;99.90;;;;;;4980675;28;20038;-64
2021/08/04 05:12:38;;;;;;;3.10;2.03;;;13.00;99.90;;;;;;4980608;28;20082;-66
2021/08/04 05:15:06;;;;;;;6.10;2.17;;;13.10;99.90;;;;;;4980749;28;20077;-66
2021/08/04 05:17:33;;;;;;;3.30;2.25;;;13.10;99.90;;;;;;4979770;28;20452;-66
2021/08/04 05:20:01;;;;;;;6.57;2.60;;;13.20;99.90;;;;;;4982023;28;20137;-66
2021/08/04 05:22:28;;;;;;;2.17;2.03;;;13.30;99.90;;;;;;4978062;28;20062;-66
2021/08/04 05:24:55;;;;;;;4.88;2.53;;;13.40;99.90;;;;;;4980873;28;20039;-66
2021/08/04 05:27:21;;;;;;;1.95;1.55;;;13.40;99.90;;;;;;4984044;28;20108;-65
2021/08/04 05:29:48;;;;;;;1.95;1.67;;;13.50;99.90;;;;;;4980417;28;20495;-64
2021/08/04 05:32:15;;;;;;;5.53;2.05;;;13.50;99.90;;;;;;4983055;28;20113;-66
2021/08/04 05:34:42;;;;;;;3.03;2.72;;;13.70;99.90;;;;;;4984358;28;20054;-65
2021/08/04 05:37:09;;;;;;;3.03;2.22;;;13.80;99.90;;;;;;4986488;28;20404;-64
2021/08/04 05:39:36;;;;;;;7.82;2.15;;;14.10;99.90;;;;;;4978767;28;20997;-64
2021/08/04 05:42:03;;;;;;;2.95;2.10;;;14.10;99.90;;;;;;4985487;28;20073;-64
2021/08/04 05:44:30;;;;;;;2.00;1.90;;;14.30;99.90;;;;;;4980334;28;20232;-64
2021/08/04 05:46:57;;;;;;;3.05;1.88;;;14.40;99.90;;;;;;4987801;28;20042;-65
2021/08/04 05:49:24;;;;;;;1.90;1.67;;;14.40;99.90;;;;;;4984545;28;20133;-67
2021/08/04 05:51:51;;;;;;;4.07;2.88;;;14.60;99.90;;;;;;4986420;28;20061;-65
2021/08/04 05:54:19;;;;;;;2.08;1.88;;;14.70;99.90;;;;;;4979125;28;20524;-64
2021/08/04 05:56:47;;;;;;;2.20;1.67;;;14.80;99.90;;;;;;4982688;28;20058;-64
2021/08/04 05:59:14;;;;;;;2.35;1.88;;;14.90;99.90;;;;;;4985576;28;20452;-65
2021/08/04 06:01:41;;;;;;;3.63;1.80;;;15.10;99.90;;;;;;4976602;28;20081;-65
2021/08/04 06:04:08;;;;;;;2.35;2.00;;;15.30;99.90;;;;;;4985318;28;20039;-69
2021/08/04 06:06:35;;;;;;;4.00;2.22;;;15.40;99.90;;;;;;4983466;28;20080;-68
2021/08/04 06:09:02;;;;;;;3.08;1.30;;;15.50;99.90;;;;;;4983140;28;20122;-65
2021/08/04 06:11:29;;;;;;;2.72;1.88;;;15.60;99.90;;;;;;4982556;28;20104;-65
2021/08/04 06:13:56;;;;;;;2.75;2.05;;;15.70;99.90;;;;;;4984870;28;20042;-66
2021/08/04 06:16:23;;;;;;;2.65;1.52;;;15.80;99.90;;;;;;4974013;28;20097;-64
2021/08/04 06:18:50;;;;;;;3.33;1.92;;;15.90;99.90;;;;;;4982736;28;20477;-65
2021/08/04 06:21:19;;;;;;;14.50;2.67;;;16.00;99.90;;;;;;4980414;28;20542;-64
2021/08/04 06:23:48;;;;;;;2.03;1.17;;;16.10;99.90;;;;;;4982497;28;20109;-64
2021/08/04 06:26:15;;;;;;;2.03;1.63;;;16.20;99.90;;;;;;4972892;28;20042;-65
2021/08/04 06:28:43;;;;;;;3.28;1.50;;;16.20;99.90;;;;;;4985157;28;20061;-64
2021/08/04 06:31:10;;;;;;;4.20;1.90;;;16.30;99.90;;;;;;4981981;28;20055;-64
2021/08/04 06:33:38;;;;;;;2.25;1.25;;;16.40;99.90;;;;;;4984008;28;20444;-64
2021/08/04 06:36:05;;;;;;;1.35;1.25;;;16.40;99.90;;;;;;4980430;28;20180;-65
2021/08/04 06:38:32;;;;;;;6.80;1.80;;;16.60;99.90;;;;;;4982038;28;20066;-67
2021/08/04 06:40:59;;;;;;;5.43;2.42;;;16.70;99.90;;;;;;4984102;28;20042;-67
2021/08/04 06:43:27;;;;;;;2.85;2.25;;;16.70;99.90;;;;;;4977671;28;20034;-64
2021/08/04 06:45:53;;;;;;;2.25;2.05;;;16.80;99.90;;;;;;4984370;28;20114;-67
2021/08/04 06:48:20;;;;;;;4.78;2.25;;;16.90;99.90;;;;;;4984489;28;20061;-64
2021/08/04 06:50:48;;;;;;;5.50;2.38;;;17.10;99.90;;;;;;4979377;28;20038;-65
2021/08/04 06:53:15;;;;;;;6.85;2.42;;;17.20;99.90;;;;;;4981649;28;20042;-65
2021/08/04 06:55:42;;;;;;;2.05;1.50;;;17.20;99.90;;;;;;4982361;28;20050;-66
2021/08/04 06:58:09;;;;;;;2.75;1.40;;;17.40;99.90;;;;;;4984255;28;20053;-68
2021/08/04 07:00:35;;;;;;;2.08;1.08;;;17.40;99.90;;;;;;4982290;28;20038;-65
2021/08/04 07:03:03;;;;;;;1.92;1.40;;;17.50;99.90;;;;;;4981197;28;20078;-65
2021/08/04 07:05:30;;;;;;;2.33;1.50;;;17.60;99.90;;;;;;4979800;28;20527;-63
2021/08/04 07:07:57;;;;;;;5.22;1.75;;;17.70;99.90;;;;;;4977845;28;20052;-66
2021/08/04 07:10:24;;;;;;;4.60;1.17;;;17.80;99.90;;;;;;4978646;28;20101;-66
2021/08/04 07:12:51;;;;;;;1.73;1.00;;;18.00;99.90;;;;;;4980334;28;20054;-64
2021/08/04 07:15:18;;;;;;;2.53;0.88;;;18.00;99.90;;;;;;4984316;28;20069;-69
2021/08/04 07:17:50;;;;;;;3.40;1.30;;;18.20;99.90;;;;;;4981628;28;20066;-65
2021/08/04 07:20:19;;;;;;;1.25;1.10;;;18.30;99.90;;;;;;4981504;28;20061;-64
2021/08/04 07:22:47;;;;;;;1.00;0.80;;;18.40;99.90;;;;;;4983925;28;20553;-68
2021/08/04 07:25:16;;;;;;;0.93;0.82;;;18.50;99.90;;;;;;4981688;28;20085;-68
2021/08/04 07:27:43;;;;;;;1.13;1.00;;;18.60;99.90;;;;;;4983757;28;20039;-66
2021/08/04 07:30:12;;;;;;;2.17;0.82;;;18.70;99.90;;;;;;4983336;28;20081;-68
2021/08/04 07:32:39;;;;;;;1.55;0.80;;;18.90;99.90;;;;;;4981246;28;20476;-67
2021/08/04 07:35:08;;;;;;;1.55;0.95;;;18.90;99.90;;;;;;4981191;28;20121;-68
2021/08/04 07:37:36;;;;;;;0.95;0.82;;;19.00;99.90;;;;;;4982999;28;20058;-66
2021/08/04 07:40:06;;;;;;;2.80;1.15;;;19.10;99.90;;;;;;4980696;28;20129;-68
2021/08/04 07:42:33;;;;;;;1.00;0.90;;;19.10;99.90;;;;;;4974114;28;20046;-66
2021/08/04 07:45:00;;;;;;;0.73;0.50;;;19.20;99.90;;;;;;4981072;28;20459;-65
2021/08/04 07:47:27;;;;;;;4.13;1.15;;;19.20;99.90;;;;;;4982838;28;20120;-71
2021/08/04 07:49:54;;;;;;;1.55;1.00;;;19.20;99.90;;;;;;4974663;28;20133;-66
2021/08/04 07:52:22;;;;;;;1.35;1.20;;;19.30;99.90;;;;;;4981242;28;20069;-68
2021/08/04 07:54:49;;;;;;;1.98;1.30;;;19.30;99.90;;;;;;4980630;28;20109;-64
2021/08/04 07:57:16;;;;;;;2.22;0.93;;;19.40;99.90;;;;;;4963907;28;20188;-67
2021/08/04 07:59:42;;;;;;;1.48;0.93;;;19.50;99.90;;;;;;4970819;28;20058;-66
2021/08/04 08:02:09;;;;;;;3.08;0.90;;;19.50;99.90;;;;;;4970510;28;20112;-68
2021/08/04 08:04:37;;;;;;;1.70;1.10;;;19.50;99.90;;;;;;4968815;28;20058;-68
2021/08/04 08:07:04;;;;;;;2.17;1.55;;;19.40;99.90;;;;;;4970055;28;20124;-68
2021/08/04 08:09:31;;;;;;;0.90;0.90;;;19.40;99.90;;;;;;4972964;28;20073;-67
2021/08/04 08:12:00;;;;;;;2.00;1.30;;;19.40;99.90;;;;;;4973443;28;20058;-68
2021/08/04 08:14:28;;;;;;;4.10;1.05;;;19.30;99.90;;;;;;4970369;28;20133;-69
2021/08/04 08:16:56;;;;;;;1.65;1.00;;;19.30;99.90;;;;;;4973159;28;20054;-65
2021/08/04 08:19:24;;;;;;;0.73;0.60;;;19.30;99.90;;;;;;4973959;28;20057;-66
2021/08/04 08:21:51;;;;;;;1.48;0.75;;;19.20;99.90;;;;;;4971883;28;20054;-65
2021/08/04 08:24:19;;;;;;;1.65;1.05;;;19.20;99.90;;;;;;4970896;28;20121;-65
2021/08/04 08:26:46;;;;;;;1.40;0.95;;;19.10;99.90;;;;;;4972166;28;20058;-68
2021/08/04 08:29:13;;;;;;;1.15;0.88;;;19.30;99.90;;;;;;4967224;28;20446;-69
2021/08/04 08:31:40;;;;;;;3.20;1.17;;;19.40;99.90;;;;;;4966432;28;20082;-68
2021/08/04 08:34:07;;;;;;;1.98;0.60;;;19.70;99.90;;;;;;4973524;28;20508;-70
2021/08/04 08:36:36;;;;;;;1.08;0.88;;;19.80;99.90;;;;;;4967006;28;20129;-69
2021/08/04 08:39:06;;;;;;;1.10;0.90;;;19.80;99.90;;;;;;4973699;28;20054;-66
2021/08/04 08:41:33;;;;;;;2.67;1.08;;;19.80;99.90;;;;;;4972380;28;20050;-66
2021/08/04 08:44:00;;;;;;;1.05;1.00;;;19.70;99.90;;;;;;4973966;28;20496;-67
2021/08/04 08:46:32;;;;;;;2.90;1.20;;;19.60;99.90;;;;;;4970796;28;20054;-65
2021/08/04 08:49:01;;;;;;;1.27;1.13;;;19.50;99.90;;;;;;4972640;28;20053;-67
2021/08/04 08:51:28;;;;;;;1.83;0.98;;;19.40;99.90;;;;;;4971719;28;20581;-66
2021/08/04 08:53:56;;;;;;;1.40;0.93;;;19.30;99.90;;;;;;4972629;28;20168;-65
2021/08/04 08:56:23;;;;;;;1.92;1.13;;;19.20;99.90;;;;;;4971396;28;20132;-68
2021/08/04 08:58:53;;;;;;;1.73;1.40;;;18.90;99.90;;;;;;4971849;28;20053;-71
2021/08/04 09:01:37;;;;;;;2.17;0.95;;;18.40;99.90;;;;;;4973379;28;20046;-64
2021/08/04 09:04:09;;;;;;;1.63;1.50;;;17.80;99.90;;;;;;4971992;28;20384;-68
2021/08/04 09:06:43;;;;;;;5.65;2.03;;;17.30;99.90;;;;;;4970434;28;20511;-67
2021/08/04 09:09:22;;;;;;;2.78;1.70;;;16.90;99.90;;;;;;4974475;28;20994;-66
2021/08/04 09:11:50;;;;;;;4.65;1.90;;;16.50;99.90;;;;;;4975887;28;20089;-70
2021/08/04 09:14:31;;;;;;;8.30;3.42;;;16.30;99.90;;;;;;4973824;28;20184;-67
2021/08/04 09:16:59;;;;;;;11.52;2.47;;;16.10;99.90;;;;;;4974796;28;20133;-67
2021/08/04 09:19:26;;;;;;;11.15;3.00;;;15.90;99.90;;;;;;4975876;28;20058;-66
2021/08/04 09:22:12;;;;;;;10.02;3.67;;;15.80;99.90;;;;;;4973784;28;20101;-64
2021/08/04 09:25:10;;;;;;;7.00;2.22;;;15.70;99.90;;;;;;4974891;28;20050;-67
2021/08/04 09:27:49;;;;;;;7.35;2.88;;;15.60;99.90;;;;;;4963740;28;20735;-67
2021/08/04 09:30:25;;;;;;;4.97;1.67;;;15.50;99.90;;;;;;4972762;28;21209;-66
2021/08/04 09:32:54;;;;;;;4.18;2.00;;;15.60;99.90;;;;;;4976688;28;20128;-66
2021/08/04 09:35:23;;;;;;;3.67;2.35;;;15.60;99.90;;;;;;4918790;28;20981;-64
2021/08/04 09:38:07;;;;;;;6.30;1.90;;;15.60;99.90;;;;;;1570965;28;10023566;-66
2021/08/04 09:40:34;;;;;;;5.25;2.38;;;15.60;99.90;;;;;;3943426;28;10001046;-66
2021/08/04 09:43:01;;;;;;;3.92;1.98;;;15.60;99.90;;;;;;4974431;28;20514;-68
2021/08/04 09:45:43;;;;;;;7.05;2.40;;;15.70;99.90;;;;;;4974415;28;20129;-66
2021/08/04 09:48:14;;;;;;;4.20;2.05;;;15.70;99.90;;;;;;4973628;28;20061;-66
2021/08/04 09:50:55;;;;;;;3.70;1.95;;;15.80;99.90;;;;;;4972452;28;20050;-64
2021/08/04 09:53:21;;;;;;;;;;;15.80;99.90;;;;;;4975370;28;20088;-65
2021/08/04 09:56:08;;;;;;;2.85;2.10;;;15.80;99.90;;;;;;4974447;28;19929;-66
2021/08/04 09:58:57;;;;;;;3.65;2.45;;;15.90;99.90;;;;;;4972069;28;20081;-66
2021/08/04 10:01:38;;;;;;;4.97;2.10;;;15.90;99.90;;;;;;4974685;28;20116;-66
2021/08/04 10:04:08;;;;;;;4.30;1.70;;;16.00;99.90;;;;;;4975251;28;20050;-67
2021/08/04 10:06:38;;;;;;;2.78;2.33;;;16.10;99.90;;;;;;4971553;28;20207;-68
2021/08/04 10:09:09;;;;;;;4.27;1.70;;;16.20;99.90;;;;;;4974014;28;20058;-67
2021/08/04 10:11:45;;;;;;;4.80;2.25;;;16.30;99.90;;;;;;4974904;28;20358;-68
2021/08/04 10:14:16;;;;;;;3.00;1.92;;;16.50;99.90;;;;;;4972328;28;20086;-67
2021/08/04 10:16:44;;;;;;;2.95;1.90;;;16.70;99.90;;;;;;4974578;28;20057;-66
2021/08/04 10:19:12;;;;;;;5.32;1.60;;;17.00;99.90;;;;;;4974018;28;20164;-64
2021/08/04 10:21:45;;;;;;;4.07;1.15;;;17.20;99.90;;;;;;4973953;28;21045;-66
2021/08/04 10:24:13;;;;;;;3.05;1.77;;;17.30;99.90;;;;;;4970976;28;20538;-66
2021/08/04 10:26:40;;;;;;;3.38;1.83;;;17.50;99.90;;;;;;4973958;28;20225;-65
2021/08/04 10:29:09;;;;;;;5.45;2.47;;;17.60;99.90;;;;;;4971842;28;20114;-68
2021/08/04 10:31:39;;;;;;;1.67;1.40;;;17.50;99.90;;;;;;4974529;28;20156;-68
2021/08/04 10:34:25;;;;;;;6.20;1.70;;;17.50;99.90;;;;;;4971076;28;20184;-66
2021/08/04 10:36:56;;;;;;;2.25;1.73;;;17.60;99.90;;;;;;4972516;28;20505;-64
2021/08/04 10:39:25;;;;;;;2.95;1.48;;;17.80;99.90;;;;;;4972706;28;20073;-67
2021/08/04 10:42:05;;;;;;;2.65;1.35;;;17.90;99.90;;;;;;4972373;28;20115;-68
2021/08/04 10:44:32;;;;;;;6.85;1.40;;;18.00;99.90;;;;;;4970859;28;20054;-68
2021/08/04 10:47:02;;;;;;;1.35;1.25;;;18.00;99.90;;;;;;4971696;28;20058;-68
2021/08/04 10:49:31;;;;;;;2.30;1.15;;;17.90;99.90;;;;;;4972871;28;20405;-65
2021/08/04 10:52:01;;;;;;;2.10;1.42;;;18.00;99.90;;;;;;4972165;28;20153;-70
2021/08/04 10:54:32;;;;;;;1.90;0.80;;;18.20;99.90;;;;;;4970506;28;20558;-69
2021/08/04 10:57:02;;;;;;;2.08;0.82;;;18.40;99.90;;;;;;4972464;28;20050;-69
2021/08/04 10:59:29;;;;;;;3.17;1.50;;;18.60;99.90;;;;;;4972685;28;20104;-65
2021/08/04 11:02:02;;;;;;;4.00;1.15;;;18.60;99.90;;;;;;4971429;28;20144;-66
2021/08/04 11:04:30;;;;;;;2.53;0.82;;;18.60;99.90;;;;;;4971945;28;20054;-68
2021/08/04 11:07:07;;;;;;;3.65;1.40;;;18.50;99.90;;;;;;4970746;28;20054;-67
2021/08/04 11:09:47;;;;;;;5.28;2.10;;;18.50;99.90;;;;;;4974976;28;20050;-66
2021/08/04 11:12:36;;;;;;;1.20;1.08;;;18.50;99.90;;;;;;4970293;28;20538;-67
2021/08/04 11:15:17;;;;;;;2.40;2.20;;;18.50;99.90;;;;;;4973603;28;20072;-67
2021/08/04 11:18:09;;;;;;;1.42;1.33;;;18.70;99.90;;;;;;4972468;28;20046;-66
2021/08/04 11:20:39;;;;;;;2.60;1.20;;;18.60;99.90;;;;;;4969466;28;21026;-67
2021/08/04 11:23:09;;;;;;;;;;;18.70;99.90;;;;;;4974205;28;20054;-68
2021/08/04 11:25:43;;;;;;;2.85;0.98;;;18.60;99.90;;;;;;4971078;28;20348;-73
2021/08/04 11:28:12;;;;;;;1.55;1.25;;;18.80;99.90;;;;;;4972613;28;20054;-67
2021/08/04 11:30:51;;;;;;;1.85;1.13;;;19.00;99.90;;;;;;4969471;28;21503;-67
2021/08/04 11:33:29;;;;;;;2.20;1.08;;;19.20;99.90;;;;;;4971289;28;20634;-67
2021/08/04 11:36:11;;;;;;;2.40;1.13;;;19.40;99.90;;;;;;4971884;28;20140;-64
2021/08/04 11:38:45;;;;;;;0.52;0.50;;;19.10;99.90;;;;;;4967677;28;20087;-66
2021/08/04 11:41:20;;;;;;;1.00;0.88;;;18.80;99.90;;;;;;4970775;28;20093;-68
2021/08/04 11:43:49;;;;;;;1.25;0.95;;;18.60;99.90;;;;;;4970326;28;20137;-68
2021/08/04 11:46:34;;;;;;;2.20;0.65;;;18.40;99.90;;;;;;4969750;28;20145;-66
2021/08/04 11:49:07;;;;;;;1.45;1.20;;;18.30;99.90;;;;;;4963942;28;20086;-68
2021/08/04 11:51:37;;;;;;;1.08;0.95;;;18.30;99.90;;;;;;4975622;28;20512;-67
2021/08/04 11:54:05;;;;;;;0.93;0.57;;;18.30;99.90;;;;;;4969199;28;20050;-66
2021/08/04 11:56:33;;;;;;;2.35;1.67;;;18.40;99.90;;;;;;4968088;28;20082;-66
2021/08/04 11:59:02;;;;;;;13.98;1.42;;;18.40;99.90;;;;;;4972584;28;20050;-66
2021/08/04 12:01:30;;;;;;;0.57;0.57;;;18.40;99.90;;;;;;4968571;28;20138;-66
2021/08/04 12:04:06;;;;;;;1.27;1.25;;;18.40;99.90;;;;;;4970590;28;20065;-65
2021/08/04 12:06:36;;;;;;;0.75;0.75;;;18.30;99.90;;;;;;4968687;28;20137;-66
2021/08/04 12:09:20;;;;;;;2.63;0.73;;;18.20;99.90;;;;;;4970508;28;20357;-68
2021/08/04 12:11:47;;;;;;;0.82;0.80;;;18.10;99.90;;;;;;4971203;28;20058;-67
2021/08/04 12:14:18;;;;;;;1.02;0.65;;;18.00;99.90;;;;;;4969757;28;20571;-69
2021/08/04 12:17:00;;;;;;;2.25;0.88;;;17.90;99.90;;;;;;4971013;28;20417;-64
2021/08/04 12:19:28;;;;;;;0.52;0.40;;;17.90;99.90;;;;;;4960656;28;20058;-67
2021/08/04 12:21:55;;;;;;;1.10;0.60;;;17.80;99.90;;;;;;4965992;28;20050;-67
2021/08/04 12:24:23;;;;;;;2.55;0.70;;;17.70;99.90;;;;;;4969354;28;20161;-68
2021/08/04 12:26:50;;;;;;;0.45;0.40;;;17.70;99.90;;;;;;4970622;28;20128;-66
2021/08/04 12:29:26;;;;;;;0.93;0.70;;;17.70;99.90;;;;;;4970845;28;20062;-65
2021/08/04 12:32:21;;;;;;;1.20;0.75;;;17.70;99.90;;;;;;4970663;28;20780;-66
2021/08/04 12:34:59;;;;;;;1.73;1.00;;;17.60;99.90;;;;;;4970986;28;20053;-68
2021/08/04 12:37:30;;;;;;;1.02;0.90;;;17.50;99.90;;;;;;4968409;28;20042;-66
2021/08/04 12:40:08;;;;;;;1.15;0.60;;;17.50;99.90;;;;;;4970595;28;20061;-68
2021/08/04 12:42:36;;;;;;;3.95;1.20;;;17.30;99.90;;;;;;4973060;28;20054;-68
2021/08/04 12:45:24;;;;;;;0.52;0.52;;;17.40;99.90;;;;;;4974504;28;20138;-71
2021/08/04 12:48:01;;;;;;;2.00;1.10;;;17.40;99.90;;;;;;4965033;28;20077;-66
2021/08/04 12:50:31;;;;;;;1.58;0.73;;;17.50;99.90;;;;;;4972472;28;20077;-65
2021/08/04 12:52:59;;;;;;;1.10;0.73;;;17.50;99.90;;;;;;4976075;28;20660;-66
2021/08/04 12:55:26;;;;;;;1.38;1.27;;;17.50;99.90;;;;;;4976408;28;20054;-68
2021/08/04 12:58:04;;;;;;;1.92;0.73;;;17.40;99.90;;;;;;4976825;28;20074;-68
2021/08/04 13:00:40;;;;;;;2.25;1.67;;;17.50;99.90;;;;;;4973562;28;20194;-67
2021/08/04 13:03:07;;;;;;;1.20;1.10;;;17.50;99.90;;;;;;4975460;28;21010;-68